Welcome to the New NWS' Forecast!
Most changes are behind the scenes, but click here for differences you might notice.

Terminal Aerodrome Forecast (TAF)

Issued by National Weather Service (NWS)

                            
000
FTUS42 KMFL 151442 AAA
TAFMIA
TAF AMD
KMIA 151442Z 1515/1618 10014KT P6SM SCT025
      TEMPO 1515/1516 BKN025
     FM160600 10008KT P6SM FEW025
     FM161500 10012KT P6SM SCT025=